createdAt,value
2024-01-30T00:04:56.522Z,7
2024-01-30T00:10:04.549Z,7
2024-01-30T00:20:20.444Z,6.9
2024-01-30T00:25:28.412Z,6.9
2024-01-30T00:30:36.422Z,6.9
2024-01-30T00:40:52.249Z,6.9
2024-01-30T00:46:00.350Z,6.9
2024-01-30T00:51:08.179Z,6.9
2024-01-30T00:56:16.145Z,6.8
2024-01-30T01:01:24.466Z,6.8
2024-01-30T01:06:32.108Z,6.8
2024-01-30T01:11:40.034Z,6.8
2024-01-30T01:16:48.014Z,6.8
2024-01-30T01:21:56.020Z,6.8
2024-01-30T01:27:03.967Z,6.8
2024-01-30T01:32:11.887Z,6.8
2024-01-30T01:37:19.963Z,6.7
2024-01-30T01:42:27.867Z,6.7
2024-01-30T01:47:35.916Z,6.7
2024-01-30T01:52:42.308Z,6.7
2024-01-30T01:57:48.683Z,6.7
2024-01-30T02:02:55.028Z,6.7
2024-01-30T02:08:01.538Z,6.7
2024-01-30T02:13:07.802Z,6.7
2024-01-30T02:18:14.209Z,6.6
2024-01-30T02:23:20.485Z,6.6
2024-01-30T02:28:26.902Z,6.6
2024-01-30T02:33:33.235Z,6.6
2024-01-30T02:38:39.591Z,6.6
2024-01-30T02:43:45.957Z,6.6
2024-01-30T02:48:52.378Z,6.6
2024-01-30T02:53:58.669Z,6.6
2024-01-30T02:59:05.044Z,6.6
2024-01-30T03:04:11.507Z,6.6
2024-01-30T03:09:17.804Z,6.6
2024-01-30T03:14:24.154Z,6.6
2024-01-30T03:19:30.671Z,6.6
2024-01-30T03:24:36.895Z,6.6
2024-01-30T03:29:43.236Z,6.6
2024-01-30T03:34:51.308Z,6.6
2024-01-30T03:39:57.697Z,6.5
2024-01-30T03:45:03.964Z,6.5
2024-01-30T03:50:10.347Z,6.5
2024-01-30T03:55:16.694Z,6.5
2024-01-30T04:00:23.060Z,6.5
2024-01-30T04:05:29.412Z,6.5
2024-01-30T04:10:35.760Z,6.5
2024-01-30T04:15:42.172Z,6.5
2024-01-30T04:20:48.481Z,6.5
2024-01-30T04:25:54.855Z,6.5
2024-01-30T04:31:01.254Z,6.5
2024-01-30T04:36:07.585Z,6.5
2024-01-30T04:41:15.578Z,6.5
2024-01-30T04:46:21.938Z,6.5
2024-01-30T04:51:28.245Z,6.5
2024-01-30T04:56:34.674Z,6.5
2024-01-30T05:01:41.056Z,6.4
2024-01-30T05:06:47.404Z,6.4
2024-01-30T05:11:53.741Z,6.4
2024-01-30T05:17:00.147Z,6.4
2024-01-30T05:22:06.540Z,6.4
2024-01-30T05:27:12.833Z,6.4
2024-01-30T05:32:19.216Z,6.4
2024-01-30T05:37:25.762Z,6.4
2024-01-30T05:42:31.905Z,6.4
2024-01-30T05:47:38.347Z,6.4
2024-01-30T05:52:44.746Z,6.4
2024-01-30T05:57:51.100Z,6.4
2024-01-30T06:02:57.399Z,6.4
2024-01-30T06:08:03.791Z,6.3
2024-01-30T06:13:10.151Z,6.3
2024-01-30T06:18:16.524Z,6.3
2024-01-30T06:23:22.857Z,6.3
2024-01-30T06:28:29.303Z,6.3
2024-01-30T06:33:35.650Z,6.3
2024-01-30T06:38:41.941Z,6.3
2024-01-30T06:43:48.290Z,6.3
2024-01-30T06:48:56.275Z,6.3
2024-01-30T06:54:02.641Z,6.3
2024-01-30T06:59:09.092Z,6.3
2024-01-30T07:04:15.431Z,6.3
2024-01-30T07:09:21.719Z,6.2
2024-01-30T07:14:28.126Z,6.2
2024-01-30T07:19:34.524Z,6.2
2024-01-30T07:24:40.817Z,6.2
2024-01-30T07:29:47.189Z,6.2
2024-01-30T07:35:03.271Z,6.2
2024-01-30T07:39:59.921Z,6.2
2024-01-30T07:45:07.879Z,6.2
2024-01-30T07:50:14.347Z,6.2
2024-01-30T07:55:20.633Z,6.2
2024-01-30T08:00:26.984Z,6.2
2024-01-30T08:05:33.416Z,6.2
2024-01-30T08:10:39.739Z,6.2
2024-01-30T08:15:46.096Z,6.2
2024-01-30T08:20:52.440Z,6.2
2024-01-30T08:25:58.827Z,6.2
2024-01-30T08:31:05.177Z,6.2
2024-01-30T08:36:13.112Z,6.2
2024-01-30T08:41:19.508Z,6.2
2024-01-30T08:46:27.508Z,6.3
2024-01-30T08:51:33.813Z,6.3
2024-01-30T08:56:40.180Z,6.3
2024-01-30T09:01:55.699Z,6.3
2024-01-30T09:06:52.969Z,6.3
2024-01-30T09:11:59.280Z,6.3
2024-01-30T09:17:05.653Z,6.3
2024-01-30T09:22:13.701Z,6.3
2024-01-30T09:27:19.956Z,6.4
2024-01-30T09:32:26.343Z,6.4
2024-01-30T09:37:34.392Z,6.4
2024-01-30T09:42:42.276Z,6.4
2024-01-30T09:47:48.636Z,6.4
2024-01-30T09:52:55.002Z,6.4
2024-01-30T09:58:01.356Z,6.5
2024-01-30T10:03:07.726Z,6.5
2024-01-30T10:08:14.275Z,6.5
2024-01-30T10:13:20.570Z,6.6
2024-01-30T10:18:26.831Z,6.6
2024-01-30T10:23:35.711Z,6.6
2024-01-30T10:28:39.560Z,6.7
2024-01-30T10:33:46.092Z,6.7
2024-01-30T10:38:52.352Z,6.8
2024-01-30T10:43:58.713Z,6.8
2024-01-30T10:49:05.028Z,6.8
2024-01-30T10:54:11.363Z,6.9
2024-01-30T11:04:24.173Z,7
2024-01-30T11:09:30.448Z,7
2024-01-30T11:14:36.810Z,7
2024-01-30T11:19:43.263Z,7.1
2024-01-30T11:29:55.909Z,7.2
2024-01-30T11:35:02.405Z,7.2
2024-01-30T11:40:08.697Z,7.3
2024-01-30T11:45:15.009Z,7.3
2024-01-30T11:50:23.010Z,7.4
2024-01-30T11:55:33.652Z,7.4
2024-01-30T12:00:36.419Z,7.4
2024-01-30T12:05:42.095Z,7.5
2024-01-30T12:10:48.428Z,7.5
2024-01-30T12:15:54.824Z,7.6
2024-01-30T12:21:01.538Z,7.6
2024-01-30T12:26:07.501Z,7.7
2024-01-30T12:31:13.981Z,7.7
2024-01-30T12:36:20.372Z,7.8
2024-01-30T12:41:26.605Z,7.8
2024-01-30T12:46:33.061Z,7.9
2024-01-30T12:51:39.351Z,7.9
2024-01-30T12:56:45.715Z,8
2024-01-30T13:01:52.386Z,8
2024-01-30T13:06:58.467Z,8.1
2024-01-30T13:12:04.829Z,8.1
2024-01-30T13:17:11.156Z,8.2
2024-01-30T13:22:17.568Z,8.3
2024-01-30T13:27:23.906Z,8.3
2024-01-30T13:32:31.904Z,8.3
2024-01-30T13:37:38.237Z,8.4
2024-01-30T13:42:44.582Z,8.4
2024-01-30T13:47:50.970Z,8.5
2024-01-30T13:52:57.383Z,8.5
2024-01-30T13:58:03.713Z,8.6
2024-01-30T14:03:10.042Z,8.6
2024-01-30T14:08:16.399Z,8.6
2024-01-30T14:13:22.803Z,8.7
2024-01-30T14:18:29.118Z,8.7
2024-01-30T14:23:35.480Z,8.7
2024-01-30T14:28:42.132Z,8.8
2024-01-30T14:38:54.574Z,8.8
2024-01-30T14:54:13.720Z,8.9
2024-01-30T14:59:20.036Z,8.9
2024-01-30T15:04:26.619Z,9
2024-01-30T15:09:33.130Z,9
2024-01-30T15:14:39.108Z,9
2024-01-30T15:19:45.592Z,9
2024-01-30T15:24:51.876Z,9
2024-01-30T15:29:58.224Z,9.1
2024-01-30T15:35:04.719Z,9.1
2024-01-30T15:40:10.943Z,9.1
2024-01-30T15:45:17.439Z,9.1
2024-01-30T15:50:23.842Z,9.1
2024-01-30T15:55:30.053Z,9.1
2024-01-30T16:00:36.450Z,9.1
2024-01-30T16:05:43.055Z,9.2
2024-01-30T16:10:49.120Z,9.2
2024-01-30T16:15:55.519Z,9.2
2024-01-30T16:21:01.832Z,9.2
2024-01-30T16:26:08.209Z,9.2
2024-01-30T16:36:22.515Z,9.2
2024-01-30T16:41:28.896Z,9.2
2024-01-30T16:46:35.447Z,9.2
2024-01-30T16:51:41.607Z,9.2
2024-01-30T16:56:47.977Z,9.2
2024-01-30T17:01:54.424Z,9.2
2024-01-30T17:07:00.945Z,9.2
2024-01-30T17:12:07.059Z,9.2
2024-01-30T17:17:14.387Z,9.2
2024-01-30T17:22:19.830Z,9.2
2024-01-30T17:27:26.186Z,9.2
2024-01-30T17:32:32.505Z,9.2
2024-01-30T17:37:38.939Z,9.2
2024-01-30T17:42:45.272Z,9.2
2024-01-30T17:47:51.729Z,9.2
2024-01-30T17:52:57.977Z,9.2
2024-01-30T17:58:04.456Z,9.2
2024-01-30T18:03:10.715Z,9.2
2024-01-30T18:08:17.087Z,9.1
2024-01-30T18:13:23.472Z,9.1
2024-01-30T18:18:31.874Z,9.1
2024-01-30T18:23:36.157Z,9.1
2024-01-30T18:28:42.568Z,9.1
2024-01-30T18:33:48.951Z,9.1
2024-01-30T18:38:55.262Z,9.1
2024-01-30T18:44:01.624Z,9.1
2024-01-30T18:49:08.083Z,9.1
2024-01-30T18:54:14.359Z,9.1
2024-01-30T18:59:20.733Z,9
2024-01-30T19:04:27.204Z,9
2024-01-30T19:09:33.467Z,9
2024-01-30T19:19:46.401Z,9
2024-01-30T19:24:52.609Z,9
2024-01-30T19:29:58.933Z,9
2024-01-30T19:35:05.299Z,9
2024-01-30T19:40:11.681Z,8.9
2024-01-30T19:45:18.042Z,8.9
2024-01-30T19:50:24.369Z,8.9
2024-01-30T19:55:30.768Z,8.9
2024-01-30T20:00:37.121Z,8.9
2024-01-30T20:05:43.541Z,8.9
2024-01-30T20:10:49.972Z,8.9
2024-01-30T20:15:56.258Z,8.8
2024-01-30T20:21:02.557Z,8.8
2024-01-30T20:26:08.923Z,8.8
2024-01-30T20:31:15.352Z,8.8
2024-01-30T20:36:21.650Z,8.8
2024-01-30T20:41:28.018Z,8.7
2024-01-30T20:46:34.468Z,8.7
2024-01-30T20:51:40.740Z,8.7
2024-01-30T20:56:47.094Z,8.7
2024-01-30T21:01:53.562Z,8.7
2024-01-30T21:06:59.854Z,8.7
2024-01-30T21:12:06.210Z,8.7
2024-01-30T21:17:12.622Z,8.6
2024-01-30T21:22:18.984Z,8.6
2024-01-30T21:32:31.666Z,8.6
2024-01-30T21:42:44.402Z,8.6
2024-01-30T21:47:50.808Z,8.5
2024-01-30T21:52:58.719Z,8.5
2024-01-30T21:58:05.214Z,8.5
2024-01-30T22:03:11.459Z,8.5
2024-01-30T22:08:17.809Z,8.5
2024-01-30T22:13:24.220Z,8.5
2024-01-30T22:18:30.475Z,8.4
2024-01-30T22:23:36.909Z,8.4
2024-01-30T22:28:43.319Z,8.4
2024-01-30T22:33:49.659Z,8.4
2024-01-30T22:38:55.979Z,8.4
2024-01-30T22:44:02.352Z,8.4
2024-01-30T22:54:15.070Z,8.3
2024-01-30T22:59:21.427Z,8.3
2024-01-30T23:04:27.879Z,8.3
2024-01-30T23:09:34.197Z,8.3
2024-01-30T23:14:40.569Z,8.3
2024-01-30T23:24:53.279Z,8.2
2024-01-30T23:29:59.623Z,8.2
2024-01-30T23:35:06.174Z,8.2
2024-01-30T23:40:12.460Z,8.2
2024-01-30T23:45:18.752Z,8.2
2024-01-30T23:50:25.081Z,8.2
2024-01-30T23:55:31.480Z,8.2
